createdAt,value
2022-09-01T00:00:49.164Z,65.10
2022-09-01T00:03:17.877Z,66.60
2022-09-01T00:08:18.501Z,65.80
2022-09-01T00:13:17.722Z,66.50
2022-09-01T00:18:15.737Z,67.70
2022-09-01T00:23:12.375Z,69.50
2022-09-01T00:25:40.607Z,68.10
2022-09-01T00:30:38.527Z,68.30
2022-09-01T00:38:05.655Z,70.30
2022-09-01T00:45:31.192Z,71.50
2022-09-01T00:48:00.729Z,69.80
2022-09-01T00:52:58.835Z,70.20
2022-09-01T00:55:30.235Z,70.30
2022-09-01T00:58:02.736Z,70.50
2022-09-01T01:00:32.490Z,70.50
2022-09-01T01:03:02.088Z,70.00
2022-09-01T01:05:34.861Z,71.10
2022-09-01T01:08:08.159Z,71.40
2022-09-01T01:10:40.428Z,74.40
2022-09-01T01:13:11.157Z,71.50
2022-09-01T01:18:14.643Z,71.80
2022-09-01T01:21:05.195Z,72.50
2022-09-01T01:23:40.246Z,72.40
2022-09-01T01:26:11.518Z,75.30
2022-09-01T01:28:43.114Z,73.80
2022-09-01T01:31:13.559Z,76.40
2022-09-01T01:33:44.637Z,74.80
2022-09-01T01:36:16.442Z,75.00
2022-09-01T01:38:47.961Z,76.00
2022-09-01T01:41:19.922Z,76.00
2022-09-01T01:43:51.132Z,76.00
2022-09-01T01:46:20.725Z,76.80
2022-09-01T01:51:25.034Z,78.50
2022-09-01T01:53:53.672Z,75.80
2022-09-01T01:56:25.672Z,76.40
2022-09-01T01:58:55.454Z,79.60
2022-09-01T02:01:25.254Z,78.20
2022-09-01T02:03:54.868Z,77.50
2022-09-01T02:06:25.239Z,80.80
2022-09-01T02:08:56.726Z,78.20
2022-09-01T02:11:27.419Z,79.10
2022-09-01T02:16:25.350Z,82.30
2022-09-01T02:21:24.582Z,84.10
2022-09-01T02:24:01.159Z,81.70
2022-09-01T02:26:32.875Z,81.80
2022-09-01T02:29:04.654Z,85.70
2022-09-01T02:31:35.681Z,84.20
2022-09-01T02:41:34.668Z,86.70
2022-09-01T02:44:03.773Z,87.30
2022-09-01T02:46:32.211Z,86.30
2022-09-01T02:51:34.533Z,87.60
2022-09-01T02:54:03.018Z,89.60
2022-09-01T02:56:32.615Z,85.80
2022-09-01T02:59:01.773Z,86.00
2022-09-01T03:01:32.491Z,84.60
2022-09-01T03:04:02.865Z,83.90
2022-09-01T03:06:34.437Z,84.50
2022-09-01T03:09:04.624Z,83.20
2022-09-01T03:11:35.858Z,83.70
2022-09-01T03:14:05.109Z,83.50
2022-09-01T03:16:33.829Z,83.50
2022-09-01T03:19:03.988Z,83.80
2022-09-01T03:21:32.992Z,85.00
2022-09-01T03:26:33.857Z,86.70
2022-09-01T03:31:31.821Z,87.20
2022-09-01T03:34:00.745Z,85.20
2022-09-01T03:36:30.136Z,87.30
2022-09-01T03:38:58.902Z,85.00
2022-09-01T03:41:30.881Z,85.00
2022-09-01T03:44:01.017Z,85.10
2022-09-01T03:46:36.454Z,85.10
2022-09-01T03:51:39.041Z,87.90
2022-09-01T03:56:36.184Z,88.00
2022-09-01T03:59:05.753Z,85.80
2022-09-01T04:04:06.684Z,88.40
2022-09-01T04:06:34.767Z,86.20
2022-09-01T04:11:32.458Z,86.50
2022-09-01T04:14:01.079Z,89.40
2022-09-01T04:16:50.741Z,86.00
2022-09-01T04:19:26.481Z,86.90
2022-09-01T04:21:56.768Z,87.80
2022-09-01T04:24:28.443Z,87.20
2022-09-01T04:26:58.745Z,87.20
2022-09-01T04:29:28.341Z,87.30
2022-09-01T04:32:02.100Z,88.00
2022-09-01T04:34:37.197Z,89.00
2022-09-01T04:37:09.640Z,87.60
2022-09-01T04:42:09.179Z,88.30
2022-09-01T04:44:37.993Z,90.20
2022-09-01T04:47:16.675Z,90.20
2022-09-01T04:49:45.730Z,89.50
2022-09-01T04:57:13.472Z,92.00
2022-09-01T05:02:11.873Z,91.00
2022-09-01T05:04:46.315Z,91.40
2022-09-01T05:12:15.720Z,92.30
2022-09-01T05:14:48.573Z,91.80
2022-09-01T05:17:18.742Z,91.80
2022-09-01T05:19:51.146Z,91.80
2022-09-01T05:22:23.961Z,92.00
2022-09-01T05:27:24.011Z,93.50
2022-09-01T05:32:26.052Z,93.60
2022-09-01T05:34:54.438Z,93.40
2022-09-01T05:37:23.020Z,93.50
2022-09-01T05:42:21.827Z,94.90
2022-09-01T05:44:52.675Z,95.10
2022-09-01T05:47:23.570Z,94.10
2022-09-01T05:55:00.023Z,95.20
2022-09-01T05:57:34.636Z,97.00
2022-09-01T06:00:10.922Z,95.20
2022-09-01T06:02:41.192Z,96.90
2022-09-01T06:05:10.990Z,95.20
2022-09-01T06:07:41.037Z,96.50
2022-09-01T06:10:10.633Z,95.20
2022-09-01T06:15:16.061Z,94.70
2022-09-01T06:17:46.353Z,95.10
2022-09-01T06:20:18.239Z,94.90
2022-09-01T06:22:47.767Z,96.80
2022-09-01T06:25:18.675Z,95.30
2022-09-01T06:27:48.199Z,94.20
2022-09-01T06:30:23.879Z,92.60
2022-09-01T06:32:54.751Z,90.30
2022-09-01T06:35:25.290Z,91.10
2022-09-01T06:37:53.800Z,90.20
2022-09-01T06:42:52.490Z,87.20
2022-09-01T06:45:22.880Z,85.60
2022-09-01T06:47:57.670Z,86.10
2022-09-01T06:56:09.028Z,81.90
2022-09-01T06:58:38.284Z,81.90
2022-09-01T07:01:15.996Z,80.80
2022-09-01T07:03:45.235Z,82.30
2022-09-01T07:09:20.040Z,78.70
2022-09-01T07:16:32.567Z,80.00
2022-09-01T07:19:56.019Z,76.50
2022-09-01T07:25:13.676Z,75.90
2022-09-01T07:27:50.470Z,78.70
2022-09-01T07:30:20.840Z,77.00
2022-09-01T07:35:23.900Z,75.00
2022-09-01T07:38:47.495Z,75.30
2022-09-01T07:43:34.140Z,75.20
2022-09-01T07:49:29.239Z,74.80
2022-09-01T07:51:44.119Z,75.10
2022-09-01T07:54:13.988Z,73.30
2022-09-01T08:01:43.940Z,73.90
2022-09-01T08:06:40.909Z,73.10
2022-09-01T08:09:11.610Z,71.90
2022-09-01T08:14:33.707Z,71.70
2022-09-01T08:17:16.957Z,70.60
2022-09-01T08:19:47.042Z,71.00
2022-09-01T08:22:15.621Z,68.80
2022-09-01T08:24:43.978Z,70.00
2022-09-01T08:27:13.782Z,69.90
2022-09-01T08:32:11.953Z,68.20
2022-09-01T08:34:40.369Z,68.50
2022-09-01T08:37:08.509Z,68.00
2022-09-01T08:39:36.575Z,67.50
2022-09-01T08:42:16.007Z,66.70
2022-09-01T08:44:57.535Z,63.40
2022-09-01T08:47:35.447Z,60.10
2022-09-01T08:50:13.112Z,58.90
2022-09-01T08:52:46.150Z,56.20
2022-09-01T08:55:22.046Z,56.40
2022-09-01T08:57:54.787Z,56.00
2022-09-01T09:00:30.286Z,55.10
2022-09-01T09:03:12.279Z,55.50
2022-09-01T09:05:57.494Z,53.60
2022-09-01T09:09:03.627Z,54.50
2022-09-01T09:11:50.789Z,54.70
2022-09-01T09:14:29.807Z,55.50
2022-09-01T09:16:59.307Z,55.10
2022-09-01T09:19:30.369Z,54.70
2022-09-01T09:22:01.036Z,55.00
2022-09-01T09:24:47.227Z,55.10
2022-09-01T09:27:20.729Z,55.40
2022-09-01T09:29:52.358Z,55.80
2022-09-01T09:32:24.089Z,55.80
2022-09-01T09:35:20.412Z,55.30
2022-09-01T09:37:48.486Z,54.90
2022-09-01T09:40:19.797Z,54.40
2022-09-01T09:43:05.240Z,53.80
2022-09-01T09:45:35.816Z,53.20
2022-09-01T09:48:10.764Z,53.40
2022-09-01T09:50:40.948Z,53.50
2022-09-01T09:53:19.551Z,54.20
2022-09-01T09:55:57.686Z,53.90
2022-09-01T09:58:29.071Z,53.00
2022-09-01T10:01:17.729Z,51.70
2022-09-01T10:03:50.508Z,52.00
2022-09-01T10:06:33.027Z,53.20
2022-09-01T10:09:02.677Z,52.80
2022-09-01T10:11:41.487Z,51.90
2022-09-01T10:14:22.925Z,51.80
2022-09-01T10:17:07.217Z,52.80
2022-09-01T10:19:40.325Z,52.30
2022-09-01T10:22:10.545Z,52.20
2022-09-01T10:24:44.699Z,51.70
2022-09-01T10:27:20.321Z,51.30
2022-09-01T10:30:12.230Z,51.40
2022-09-01T10:32:50.837Z,51.20
2022-09-01T10:35:27.691Z,50.80
2022-09-01T10:37:59.138Z,51.50
2022-09-01T10:40:50.028Z,52.10
2022-09-01T10:43:43.179Z,51.80
2022-09-01T10:46:50.179Z,50.70
2022-09-01T10:50:02.337Z,48.20
2022-09-01T10:53:00.010Z,49.20
2022-09-01T10:55:33.429Z,50.00
2022-09-01T11:13:25.732Z,48.70
2022-09-01T11:15:55.377Z,48.10
2022-09-01T11:18:31.374Z,48.50
2022-09-01T11:21:16.110Z,48.00
2022-09-01T11:23:46.184Z,47.90
2022-09-01T11:26:43.919Z,46.00
2022-09-01T11:29:52.912Z,45.20
2022-09-01T11:32:26.472Z,44.70
2022-09-01T11:34:57.253Z,44.30
2022-09-01T11:37:27.788Z,44.30
2022-09-01T11:39:58.579Z,43.60
2022-09-01T11:42:30.863Z,43.10
2022-09-01T11:45:04.524Z,43.60
2022-09-01T11:47:39.627Z,44.10
2022-09-01T11:50:18.144Z,45.00
2022-09-01T11:52:55.417Z,44.10
2022-09-01T11:55:31.835Z,44.40
2022-09-01T11:58:00.132Z,43.40
2022-09-01T12:00:32.475Z,43.50
2022-09-01T12:03:01.180Z,43.30
2022-09-01T12:05:33.289Z,42.70
2022-09-01T12:08:04.459Z,42.80
2022-09-01T12:10:35.505Z,43.50
2022-09-01T12:13:06.885Z,42.70
2022-09-01T12:16:07.149Z,42.70
2022-09-01T12:18:32.512Z,42.70
2022-09-01T12:21:02.249Z,41.60
2022-09-01T12:23:33.056Z,41.10
2022-09-01T12:26:03.928Z,41.40
2022-09-01T12:28:34.370Z,41.60
2022-09-01T12:31:07.397Z,41.20
2022-09-01T12:33:36.739Z,41.30
2022-09-01T12:36:25.708Z,41.40
2022-09-01T12:38:55.013Z,41.00
2022-09-01T12:41:29.034Z,41.00
2022-09-01T12:43:57.412Z,41.00
2022-09-01T12:46:46.981Z,40.40
2022-09-01T12:49:19.088Z,40.40
2022-09-01T12:51:48.784Z,40.10
2022-09-01T12:54:17.349Z,40.80
2022-09-01T12:56:51.215Z,40.90
2022-09-01T12:59:36.297Z,40.50
2022-09-01T13:02:30.595Z,40.20
2022-09-01T13:05:20.709Z,39.30
2022-09-01T13:07:48.855Z,39.00
2022-09-01T13:10:17.420Z,39.70
2022-09-01T13:12:46.448Z,39.20
2022-09-01T13:17:49.223Z,39.50
2022-09-01T13:20:17.348Z,38.80
2022-09-01T13:22:45.669Z,39.60
2022-09-01T13:25:15.342Z,39.10
2022-09-01T13:27:44.422Z,39.00
2022-09-01T13:30:15.371Z,38.70
2022-09-01T13:35:34.216Z,38.80
2022-09-01T13:38:02.583Z,39.10
2022-09-01T13:40:31.062Z,38.90
2022-09-01T13:42:59.258Z,39.60
2022-09-01T13:45:28.669Z,39.90
2022-09-01T13:53:37.835Z,38.30
2022-09-01T13:56:06.453Z,38.10
2022-09-01T13:58:34.519Z,38.40
2022-09-01T14:01:02.771Z,39.00
2022-09-01T14:03:32.294Z,38.20
2022-09-01T14:06:02.022Z,38.00
2022-09-01T14:08:30.971Z,38.30
2022-09-01T14:10:59.072Z,38.00
2022-09-01T14:13:28.019Z,39.20
2022-09-01T14:15:56.673Z,38.50
2022-09-01T14:18:24.810Z,39.50
2022-09-01T14:20:54.627Z,38.60
2022-09-01T14:23:24.123Z,38.80
2022-09-01T14:25:53.017Z,38.50
2022-09-01T14:28:23.195Z,38.40
2022-09-01T14:33:24.205Z,38.70
2022-09-01T14:35:52.468Z,39.10
2022-09-01T14:38:21.051Z,38.90
2022-09-01T14:40:52.065Z,39.10
2022-09-01T14:43:20.291Z,39.20
2022-09-01T14:45:48.775Z,39.30
2022-09-01T14:48:18.034Z,38.90
2022-09-01T14:50:51.044Z,38.50
2022-09-01T14:53:19.953Z,38.40
2022-09-01T14:55:49.718Z,38.30
2022-09-01T14:58:22.282Z,38.70
2022-09-01T15:00:50.464Z,38.70
2022-09-01T15:03:22.533Z,38.80
2022-09-01T15:05:51.329Z,39.10
2022-09-01T15:08:19.975Z,39.20
2022-09-01T15:10:48.790Z,38.70
2022-09-01T15:13:17.014Z,38.80
2022-09-01T15:15:46.506Z,39.00
2022-09-01T15:18:14.726Z,39.00
2022-09-01T15:20:46.563Z,38.10
2022-09-01T15:23:16.637Z,38.30
2022-09-01T15:25:44.829Z,38.70
2022-09-01T15:28:13.097Z,38.90
2022-09-01T15:30:42.097Z,39.10
2022-09-01T15:33:15.992Z,39.70
2022-09-01T15:35:44.979Z,39.90
2022-09-01T15:38:17.057Z,40.70
2022-09-01T15:40:58.328Z,41.60
2022-09-01T15:43:28.054Z,41.90
2022-09-01T15:45:58.194Z,41.80
2022-09-01T15:48:28.827Z,41.80
2022-09-01T15:51:22.215Z,42.00
2022-09-01T15:53:50.342Z,41.20
2022-09-01T15:56:18.936Z,40.90
2022-09-01T15:59:00.850Z,41.10
2022-09-01T16:01:31.893Z,41.20
2022-09-01T16:04:02.289Z,41.30
2022-09-01T16:06:30.474Z,41.60
2022-09-01T16:08:58.639Z,42.30
2022-09-01T16:11:27.657Z,42.50
2022-09-01T16:13:56.341Z,42.70
2022-09-01T16:16:40.933Z,42.70
2022-09-01T16:19:22.581Z,42.90
2022-09-01T16:22:00.607Z,42.70
2022-09-01T16:24:28.937Z,43.00
2022-09-01T16:26:57.966Z,42.80
2022-09-01T16:29:35.819Z,43.10
2022-09-01T16:32:04.222Z,43.70
2022-09-01T16:34:34.782Z,43.30
2022-09-01T16:37:09.088Z,43.00
2022-09-01T16:39:47.063Z,43.20
2022-09-01T16:42:27.970Z,43.50
2022-09-01T16:45:05.899Z,43.40
2022-09-01T16:47:55.652Z,43.60
2022-09-01T16:50:35.940Z,43.60
2022-09-01T16:53:15.466Z,43.40
2022-09-01T16:56:02.059Z,43.50
2022-09-01T16:58:51.041Z,43.50
2022-09-01T17:01:32.637Z,43.80
2022-09-01T17:04:15.627Z,43.50
2022-09-01T17:06:54.349Z,43.40
2022-09-01T17:09:29.351Z,43.40
2022-09-01T17:12:11.973Z,43.40
2022-09-01T17:14:47.598Z,43.50
2022-09-01T17:17:20.753Z,43.10
2022-09-01T17:19:52.626Z,43.30
2022-09-01T17:22:23.136Z,43.10
2022-09-01T17:24:57.812Z,43.50
2022-09-01T17:27:32.041Z,43.20
2022-09-01T17:30:01.000Z,43.60
2022-09-01T17:32:48.304Z,43.60
2022-09-01T17:35:24.484Z,43.30
2022-09-01T17:38:09.058Z,43.10
2022-09-01T17:40:56.713Z,43.30
2022-09-01T17:43:30.514Z,43.50
2022-09-01T17:46:08.640Z,43.60
2022-09-01T17:48:44.568Z,43.90
2022-09-01T17:51:23.461Z,43.90
2022-09-01T17:54:02.661Z,44.10
2022-09-01T17:56:41.771Z,44.20
2022-09-01T17:59:16.331Z,44.70
2022-09-01T18:01:54.153Z,44.60
2022-09-01T18:04:53.422Z,44.90
2022-09-01T18:07:52.619Z,45.00
2022-09-01T18:10:28.705Z,45.20
2022-09-01T18:13:02.178Z,45.20
2022-09-01T18:15:41.960Z,45.10
2022-09-01T18:18:28.247Z,45.60
2022-09-01T18:21:03.460Z,45.80
2022-09-01T18:23:36.386Z,46.10
2022-09-01T18:26:15.900Z,46.50
2022-09-01T18:28:44.358Z,46.60
2022-09-01T18:31:34.782Z,46.60
2022-09-01T18:34:09.927Z,46.80
2022-09-01T18:36:47.115Z,47.50
2022-09-01T18:39:21.775Z,47.70
2022-09-01T18:42:06.947Z,47.50
2022-09-01T18:44:49.165Z,47.80
2022-09-01T18:47:18.624Z,48.20
2022-09-01T18:49:55.117Z,47.90
2022-09-01T18:52:53.923Z,48.50
2022-09-01T18:55:28.595Z,48.10
2022-09-01T18:58:01.939Z,48.20
2022-09-01T19:00:36.154Z,48.60
2022-09-01T19:03:12.303Z,48.80
2022-09-01T19:06:07.126Z,48.80
2022-09-01T19:08:46.108Z,48.90
2022-09-01T19:11:24.625Z,49.10
2022-09-01T19:14:04.796Z,49.20
2022-09-01T19:16:46.467Z,49.70
2022-09-01T19:19:24.359Z,49.80
2022-09-01T19:21:55.846Z,50.40
2022-09-01T19:24:30.528Z,50.60
2022-09-01T19:27:02.082Z,49.90
2022-09-01T19:29:38.664Z,50.80
2022-09-01T19:32:09.997Z,51.70
2022-09-01T19:34:40.777Z,51.20
2022-09-01T19:37:09.831Z,51.60
2022-09-01T19:39:40.984Z,51.00
2022-09-01T19:42:15.164Z,52.20
2022-09-01T19:44:55.420Z,52.00
2022-09-01T19:47:32.977Z,51.80
2022-09-01T19:50:09.096Z,51.60
2022-09-01T19:52:42.173Z,51.20
2022-09-01T19:55:15.111Z,50.90
2022-09-01T19:57:47.613Z,51.00
2022-09-01T20:00:20.668Z,51.30
2022-09-01T20:02:54.268Z,52.10
2022-09-01T20:05:31.345Z,52.50
2022-09-01T20:08:03.607Z,52.90
2022-09-01T20:10:56.603Z,52.70
2022-09-01T20:13:43.781Z,53.30
2022-09-01T20:16:24.853Z,53.90
2022-09-01T20:18:59.394Z,55.00
2022-09-01T20:24:01.028Z,54.40
2022-09-01T20:26:32.848Z,55.80
2022-09-01T20:29:07.137Z,54.80
2022-09-01T20:31:40.283Z,55.10
2022-09-01T20:34:15.254Z,55.30
2022-09-01T20:36:49.782Z,56.20
2022-09-01T20:39:39.815Z,56.00
2022-09-01T20:42:15.374Z,55.90
2022-09-01T20:44:50.928Z,55.70
2022-09-01T20:47:28.357Z,56.20
2022-09-01T20:49:58.997Z,56.00
2022-09-01T20:52:35.104Z,56.20
2022-09-01T20:55:17.150Z,56.80
2022-09-01T20:57:52.999Z,56.80
2022-09-01T21:00:25.749Z,56.60
2022-09-01T21:03:03.274Z,57.60
2022-09-01T21:05:41.667Z,56.70
2022-09-01T21:08:24.878Z,56.90
2022-09-01T21:10:58.857Z,57.20
2022-09-01T21:13:47.801Z,57.00
2022-09-01T21:16:31.708Z,56.70
2022-09-01T21:19:07.737Z,56.60
2022-09-01T21:21:44.817Z,56.90
2022-09-01T21:29:31.228Z,56.80
2022-09-01T21:31:59.614Z,57.30
2022-09-01T21:34:29.055Z,58.20
2022-09-01T21:36:57.131Z,58.00
2022-09-01T21:39:25.204Z,57.70
2022-09-01T21:41:53.388Z,58.30
2022-09-01T21:44:22.307Z,58.10
2022-09-01T21:46:50.699Z,55.70
2022-09-01T21:49:18.909Z,58.60
2022-09-01T21:51:48.617Z,58.20
2022-09-01T22:01:45.593Z,58.70
2022-09-01T22:04:13.732Z,59.30
2022-09-01T22:06:42.485Z,59.60
2022-09-01T22:09:20.653Z,58.60
2022-09-01T22:14:18.504Z,58.60
2022-09-01T22:19:15.520Z,59.50
2022-09-01T22:21:43.861Z,60.00
2022-09-01T22:24:13.355Z,59.30
2022-09-01T22:26:48.203Z,59.30
2022-09-01T22:29:17.546Z,59.70
2022-09-01T22:31:46.085Z,58.40
2022-09-01T22:34:14.377Z,59.10
2022-09-01T22:36:45.684Z,58.70
2022-09-01T22:39:16.880Z,58.40
2022-09-01T22:44:13.436Z,59.20
2022-09-01T22:46:41.855Z,58.10
2022-09-01T22:49:10.512Z,58.30
2022-09-01T22:51:40.129Z,58.70
2022-09-01T22:54:10.302Z,59.20
2022-09-01T22:56:41.816Z,60.60
2022-09-01T22:59:13.199Z,61.20
2022-09-01T23:01:45.044Z,59.50
2022-09-01T23:04:14.531Z,59.70
2022-09-01T23:06:45.338Z,59.70
2022-09-01T23:09:13.493Z,59.50
2022-09-01T23:11:43.974Z,59.30
2022-09-01T23:14:12.147Z,59.40
2022-09-01T23:16:40.436Z,59.90
2022-09-01T23:19:09.092Z,59.30
2022-09-01T23:21:38.668Z,60.60
2022-09-01T23:24:07.898Z,59.20
2022-09-01T23:26:36.435Z,60.90
2022-09-01T23:29:06.403Z,59.90
2022-09-01T23:31:37.001Z,59.10
2022-09-01T23:36:34.512Z,59.40
2022-09-01T23:39:02.865Z,60.50
2022-09-01T23:41:33.337Z,60.30
2022-09-01T23:44:03.852Z,63.10
2022-09-01T23:46:36.913Z,61.30
2022-09-01T23:49:06.206Z,59.30
2022-09-01T23:56:31.632Z,61.30
2022-09-01T23:59:00.855Z,61.20
